Check out our new BloomSky Weather System.

Active alerts


No alerts


Thunder radar  blitzortung!


Rain radar more information rain snow radar


Visit our other weather sites:

Template documentation
and downloads

And another site



Weather Underground History page Text

Daily Summary for July 16, 2017 Units:  Metric    English   Both
« Previous Day
Next Day »
Daily Weekly Monthly Yearly Custom
  High: Low: Average:
Temperature: -17.8 °C 22.7 °C 27.7 °C
Dew Point: -17.8 °C 22.5 °C 23.7 °C
Humidity: Humidity % 55 % 81 %
Wind Speed: 0 km/h 0 km/h 1.8 km/h
Wind Gust: 0 km/h - -
Wind:- - SW
Pressure: 0 hPa 1010 hPa -
Precipitation: 0 mm    
Historical Graphs
 
 
Tabular Data for July 16, 2017
Time Temperature Dew Point Pressure Wind Wind Speed Wind Gust Humidity Rainfall Rate (Hourly)
-17.8 °C -17.8 °C 0 hPa Calm     Humidity % 0 mm
00:00 23.3 °C 23.1 °C 1015.1 hPa Calm   1.6 km/h 99 % 0 mm
00:06 23.3 °C 23.1 °C 1015.1 hPa Calm     99 % 0 mm
00:11 23.2 °C 23 °C 1014.8 hPa Calm     99 % 0 mm
00:16 23.2 °C 23 °C 1014.8 hPa Calm     99 % 0 mm
00:21 23.3 °C 23.3 °C 1014.8 hPa Calm     100 % 0 mm
00:26 23.3 °C 23.3 °C 1014.8 hPa Calm     100 % 0 mm
00:31 23.3 °C 23.1 °C 1014.8 hPa Calm     99 % 0 mm
00:36 23.2 °C 23 °C 1014.8 hPa Calm     99 % 0 mm
00:41 23.3 °C 23.3 °C 1014.8 hPa Calm   1.6 km/h 100 % 0 mm
00:46 23.2 °C 23 °C 1014.8 hPa Calm   1.6 km/h 99 % 0 mm
00:51 23.2 °C 23 °C 1014.8 hPa Calm   1.6 km/h 99 % 0 mm
00:56 23.1 °C 22.9 °C 1014.8 hPa Calm   1.6 km/h 99 % 0 mm
01:01 23.1 °C 22.9 °C 1014.8 hPa Calm     99 % 0 mm
01:06 23.1 °C 23.1 °C 1014.8 hPa Calm   1.6 km/h 100 % 0 mm
01:11 23.2 °C 23.2 °C 1014.8 hPa Calm   1.6 km/h 100 % 0 mm
01:16 23.2 °C 23.2 °C 1014.8 hPa NE 1.6 km/h 1.6 km/h 100 % 0 mm
01:21 23.3 °C 23.3 °C 1014.8 hPa Calm   1.6 km/h 100 % 0 mm
01:26 23.3 °C 23.3 °C 1014.8 hPa Calm   1.6 km/h 100 % 0 mm
01:31 23.3 °C 23.1 °C 1014.8 hPa Calm   1.6 km/h 99 % 0 mm
01:36 23.3 °C 23.1 °C 1014.8 hPa Calm   1.6 km/h 99 % 0 mm
01:41 23.2 °C 23 °C 1014.4 hPa Calm   1.6 km/h 99 % 0 mm
01:46 23.3 °C 23.3 °C 1014.4 hPa Calm     100 % 0 mm
01:51 23.3 °C 23.1 °C 1014.4 hPa Calm     99 % 0 mm
01:56 23.3 °C 23.1 °C 1014.4 hPa Calm     99 % 0 mm
02:01 23.3 °C 23.1 °C 1014.4 hPa Calm     99 % 0 mm
02:06 23.2 °C 23 °C 1014.4 hPa SE 1.6 km/h   99 % 0 mm
02:11 23.2 °C 23 °C 1014.1 hPa Calm   3.2 km/h 99 % 0 mm
02:16 23.2 °C 23 °C 1014.1 hPa Calm   3.2 km/h 99 % 0 mm
02:21 23.1 °C 22.9 °C 1014.1 hPa Calm   3.2 km/h 99 % 0 mm
02:26 23.1 °C 22.9 °C 1014.1 hPa Calm   3.2 km/h 99 % 0 mm
02:31 23.1 °C 22.9 °C 1014.1 hPa Calm   1.6 km/h 99 % 0 mm
02:36 23.1 °C 22.9 °C 1014.1 hPa Calm   1.6 km/h 99 % 0 mm
02:41 23.1 °C 23.1 °C 1014.1 hPa Calm     100 % 0 mm
02:46 23.1 °C 23.1 °C 1014.1 hPa Calm     100 % 0 mm
02:51 23.1 °C 22.9 °C 1013.8 hPa Calm   1.6 km/h 99 % 0 mm
02:56 23.1 °C 22.9 °C 1013.8 hPa Calm   1.6 km/h 99 % 0 mm
03:01 23.1 °C 22.9 °C 1013.8 hPa Calm   1.6 km/h 99 % 0 mm
03:06 23.1 °C 22.9 °C 1013.8 hPa Calm   1.6 km/h 99 % 0 mm
03:11 23.1 °C 23.1 °C 1013.8 hPa Calm   3.2 km/h 100 % 0 mm
03:16 23.1 °C 23.1 °C 1013.8 hPa Calm   3.2 km/h 100 % 0 mm
03:21 23.1 °C 22.9 °C 1013.8 hPa Calm   3.2 km/h 99 % 0 mm
03:26 22.9 °C 22.7 °C 1013.8 hPa Calm   1.6 km/h 99 % 0 mm
03:31 22.9 °C 22.7 °C 1014.1 hPa Calm   3.2 km/h 99 % 0 mm
03:36 22.9 °C 22.7 °C 1014.1 hPa Calm   3.2 km/h 99 % 0 mm
03:41 22.9 °C 22.7 °C 1014.1 hPa NW 1.6 km/h 3.2 km/h 99 % 0 mm
03:46 22.8 °C 22.6 °C 1014.1 hPa Calm   3.2 km/h 99 % 0 mm
03:51 22.8 °C 22.6 °C 1014.1 hPa Calm   3.2 km/h 99 % 0 mm
03:56 22.8 °C 22.6 °C 1014.1 hPa Calm   3.2 km/h 99 % 0 mm
04:02 22.8 °C 22.8 °C 1014.1 hPa Calm   3.2 km/h 100 % 0 mm
04:07 22.9 °C 22.9 °C 1014.1 hPa Calm     100 % 0 mm
04:12 22.9 °C 22.9 °C 1014.1 hPa WNW 1.6 km/h   100 % 0 mm
04:17 22.9 °C 22.7 °C 1013.8 hPa NW 1.6 km/h 3.2 km/h 99 % 0 mm
04:22 22.8 °C 22.6 °C 1014.1 hPa Calm   3.2 km/h 99 % 0 mm
04:27 22.8 °C 22.6 °C 1014.1 hPa NW 1.6 km/h 3.2 km/h 99 % 0 mm
04:32 22.8 °C 22.6 °C 1014.1 hPa Calm   4.8 km/h 99 % 0 mm
04:37 22.8 °C 22.6 °C 1014.1 hPa Calm   4.8 km/h 99 % 0 mm
04:42 22.8 °C 22.6 °C 1014.1 hPa Calm   4.8 km/h 99 % 0 mm
04:47 22.8 °C 22.6 °C 1014.1 hPa NNW 1.6 km/h 4.8 km/h 99 % 0 mm
04:52 22.8 °C 22.6 °C 1014.1 hPa NNW 3.2 km/h 3.2 km/h 99 % 0 mm
04:57 22.8 °C 22.6 °C 1014.1 hPa NNW 3.2 km/h 3.2 km/h 99 % 0 mm
05:02 22.8 °C 22.6 °C 1014.1 hPa NW 3.2 km/h 4.8 km/h 99 % 0 mm
05:07 22.8 °C 22.6 °C 1014.1 hPa NNW 3.2 km/h 4.8 km/h 99 % 0 mm
05:12 22.8 °C 22.6 °C 1014.4 hPa NNW 4.8 km/h 4.8 km/h 99 % 0 mm
05:17 22.9 °C 22.7 °C 1014.4 hPa Calm   6.4 km/h 99 % 0 mm
05:22 22.9 °C 22.7 °C 1014.4 hPa NW 1.6 km/h 8 km/h 99 % 0 mm
05:27 22.8 °C 22.6 °C 1014.4 hPa NW 1.6 km/h 8 km/h 99 % 0 mm
05:32 22.8 °C 22.6 °C 1014.4 hPa NNW 3.2 km/h 8 km/h 99 % 0 mm
05:37 22.8 °C 22.6 °C 1014.4 hPa WNW 3.2 km/h 9.7 km/h 99 % 0 mm
05:42 22.7 °C 22.5 °C 1014.4 hPa NW 1.6 km/h 9.7 km/h 99 % 0 mm
05:47 22.7 °C 22.5 °C 1014.4 hPa Calm   9.7 km/h 99 % 0 mm
05:52 22.7 °C 22.5 °C 1014.4 hPa Calm   8 km/h 99 % 0 mm
05:57 22.7 °C 22.5 °C 1014.4 hPa NW 1.6 km/h 4.8 km/h 99 % 0 mm
06:02 22.7 °C 22.5 °C 1014.4 hPa NW 3.2 km/h 6.4 km/h 99 % 0 mm
06:07 22.8 °C 22.6 °C 1014.4 hPa Calm   6.4 km/h 99 % 0 mm
06:12 22.8 °C 22.6 °C 1014.4 hPa Calm   6.4 km/h 99 % 0 mm
06:17 22.8 °C 22.6 °C 1014.4 hPa Calm   4.8 km/h 99 % 0 mm
06:22 22.8 °C 22.6 °C 1014.4 hPa Calm   3.2 km/h 99 % 0 mm
06:27 22.8 °C 22.6 °C 1014.4 hPa Calm   3.2 km/h 99 % 0 mm
06:32 22.8 °C 22.6 °C 1014.4 hPa Calm   1.6 km/h 99 % 0 mm
06:37 22.8 °C 22.6 °C 1014.4 hPa Calm   1.6 km/h 99 % 0 mm
06:42 22.8 °C 22.6 °C 1014.4 hPa Calm   1.6 km/h 99 % 0 mm
06:47 22.8 °C 22.6 °C 1014.4 hPa Calm   3.2 km/h 99 % 0 mm
06:52 22.8 °C 22.6 °C 1014.4 hPa Calm   3.2 km/h 99 % 0 mm
06:57 22.9 °C 22.7 °C 1014.4 hPa NNW 1.6 km/h 3.2 km/h 99 % 0 mm
07:02 22.9 °C 22.7 °C 1014.4 hPa Calm   3.2 km/h 99 % 0 mm
07:07 22.9 °C 22.7 °C 1014.4 hPa Calm   3.2 km/h 99 % 0 mm
07:12 22.9 °C 22.7 °C 1014.4 hPa Calm   3.2 km/h 99 % 0 mm
07:17 23 °C 22.8 °C 1014.1 hPa Calm   1.6 km/h 99 % 0 mm
07:22 23 °C 22.8 °C 1014.1 hPa Calm   1.6 km/h 99 % 0 mm
07:27 23 °C 22.8 °C 1014.1 hPa Calm   1.6 km/h 99 % 0 mm
07:32 23 °C 22.8 °C 1014.1 hPa Calm   1.6 km/h 99 % 0 mm
07:37 23.1 °C 22.9 °C 1014.1 hPa Calm   1.6 km/h 99 % 0 mm
07:38 23.1 °C 22.9 °C 1014.1 hPa Calm   1.6 km/h 99 % 0 mm
07:43 23.2 °C 23.2 °C 1014.1 hPa Calm   1.6 km/h 100 % 0 mm
07:48 23.3 °C 23.3 °C 1014.1 hPa Calm   1.6 km/h 100 % 0 mm
07:53 23.4 °C 23.4 °C 1014.4 hPa ENE 1.6 km/h 1.6 km/h 100 % 0 mm
07:58 23.4 °C 23.4 °C 1014.4 hPa ESE 1.6 km/h 3.2 km/h 100 % 0 mm
08:03 23.4 °C 23.2 °C 1014.4 hPa Calm   3.2 km/h 99 % 0 mm
08:08 23.4 °C 23.2 °C 1014.4 hPa Calm   3.2 km/h 99 % 0 mm
08:13 23.5 °C 23.3 °C 1014.4 hPa Calm   3.2 km/h 99 % 0 mm
08:18 23.8 °C 23.8 °C 1014.4 hPa Calm   1.6 km/h 100 % 0 mm
08:23 23.9 °C 23.7 °C 1014.4 hPa NW 3.2 km/h 6.4 km/h 99 % 0 mm
08:28 23.9 °C 23.7 °C 1014.4 hPa NNW 3.2 km/h 6.4 km/h 99 % 0 mm
08:33 24 °C 23.8 °C 1014.8 hPa NW 3.2 km/h 8 km/h 99 % 0 mm
08:34 24 °C 23.8 °C 1014.8 hPa WSW 1.6 km/h 8 km/h 99 % 0 mm
08:38 24 °C 23.7 °C 1014.4 hPa WNW 1.6 km/h 8 km/h 98 % 0 mm
08:44 24 °C 23.7 °C 1014.8 hPa NNE 1.6 km/h 8 km/h 98 % 0 mm
08:49 24.3 °C 24 °C 1014.8 hPa Calm   6.4 km/h 98 % 0 mm
08:54 24.7 °C 24.5 °C 1014.8 hPa Calm   6.4 km/h 99 % 0 mm
08:59 24.7 °C 24.2 °C 1014.8 hPa NNW 1.6 km/h 6.4 km/h 97 % 0 mm
09:04 24.7 °C 24.2 °C 1014.4 hPa NNW 4.8 km/h 6.4 km/h 97 % 0 mm
09:09 24.8 °C 24.1 °C 1014.8 hPa NNW 3.2 km/h 6.4 km/h 96 % 0 mm
09:14 25.1 °C 24.6 °C 1014.8 hPa NNW 1.6 km/h 6.4 km/h 97 % 0 mm
09:19 25.4 °C 24.5 °C 1014.8 hPa NW 3.2 km/h 6.4 km/h 95 % 0 mm
09:24 25.7 °C 24.7 °C 1014.8 hPa WNW 1.6 km/h 6.4 km/h 94 % 0 mm
09:29 25.9 °C 24.7 °C 1014.8 hPa NW 3.2 km/h 6.4 km/h 93 % 0 mm
09:34 26.2 °C 24.8 °C 1014.8 hPa WNW 1.6 km/h 6.4 km/h 92 % 0 mm
09:39 26.6 °C 24.8 °C 1014.8 hPa North 3.2 km/h 9.7 km/h 90 % 0 mm
09:44 26.9 °C 25.1 °C 1014.8 hPa WNW 1.6 km/h 9.7 km/h 90 % 0 mm
09:49 27.1 °C 24.6 °C 1014.8 hPa NNW 4.8 km/h 9.7 km/h 86 % 0 mm
09:54 27.2 °C 24.7 °C 1014.8 hPa North 4.8 km/h 8 km/h 86 % 0 mm
09:59 27.4 °C 24.8 °C 1014.8 hPa NW 3.2 km/h 8 km/h 86 % 0 mm
10:04 27.6 °C 24.4 °C 1014.8 hPa West 3.2 km/h 8 km/h 83 % 0 mm
10:09 27.7 °C 24.3 °C 1014.8 hPa NE 3.2 km/h 9.7 km/h 82 % 0 mm
10:14 27.9 °C 24.5 °C 1014.8 hPa WNW 1.6 km/h 9.7 km/h 82 % 0 mm
10:19 28.1 °C 24.7 °C 1014.4 hPa Calm   9.7 km/h 82 % 0 mm
10:24 28.2 °C 24.2 °C 1014.4 hPa Calm   8 km/h 79 % 0 mm
10:29 28.3 °C 24.3 °C 1014.4 hPa NW 4.8 km/h 8 km/h 79 % 0 mm
10:34 28.2 °C 24.2 °C 1014.4 hPa NW 4.8 km/h 8 km/h 79 % 0 mm
10:39 28.3 °C 24.3 °C 1014.4 hPa NW 3.2 km/h 8 km/h 79 % 0 mm
10:44 28.3 °C 24.5 °C 1014.4 hPa NW 3.2 km/h 8 km/h 80 % 0 mm
10:49 28.6 °C 24.6 °C 1014.4 hPa WNW 4.8 km/h 8 km/h 79 % 0 mm
10:54 28.8 °C 24.8 °C 1014.4 hPa NW 6.4 km/h 9.7 km/h 79 % 0 mm
10:59 29 °C 24.3 °C 1014.4 hPa ENE 3.2 km/h 9.7 km/h 76 % 0 mm
11:04 29.2 °C 25 °C 1014.4 hPa Calm   9.7 km/h 78 % 0 mm
11:09 29.5 °C 24.8 °C 1014.4 hPa NW 1.6 km/h 8 km/h 76 % 0 mm
11:11 29.5 °C 24.6 °C 1014.4 hPa NW 1.6 km/h 9.7 km/h 75 % 0 mm
11:16 29.7 °C 24.8 °C 1014.4 hPa NNW 8 km/h 9.7 km/h 75 % 0 mm
11:21 29.8 °C 24.4 °C 1014.4 hPa NNW 3.2 km/h 9.7 km/h 73 % 0 mm
11:26 30 °C 25.1 °C 1014.4 hPa ENE 1.6 km/h 9.7 km/h 75 % 0 mm
11:31 30.2 °C 25 °C 1014.4 hPa WNW 3.2 km/h 11.3 km/h 74 % 0 mm
11:36 30.3 °C 24.9 °C 1014.4 hPa NW 4.8 km/h 11.3 km/h 73 % 0 mm
11:41 30.2 °C 24.8 °C 1014.4 hPa NW 3.2 km/h 11.3 km/h 73 % 0 mm
11:46 30.2 °C 24.6 °C 1014.4 hPa NW 1.6 km/h 8 km/h 72 % 0 mm
11:51 30.1 °C 24.7 °C 1014.4 hPa NNW 4.8 km/h 8 km/h 73 % 0 mm
11:56 30.2 °C 24.4 °C 1014.4 hPa WNW 4.8 km/h 8 km/h 71 % 0 mm
12:01 30 °C 24.9 °C 1014.4 hPa ENE 3.2 km/h 9.7 km/h 74 % 0 mm
12:06 29.9 °C 24.5 °C 1014.4 hPa WNW 1.6 km/h 9.7 km/h 73 % 0 mm
12:11 29.8 °C 24.7 °C 1014.4 hPa NW 4.8 km/h 9.7 km/h 74 % 0 mm
12:16 29.8 °C 24.4 °C 1014.4 hPa SSW 1.6 km/h 8 km/h 73 % 0 mm
12:21 29.9 °C 25.2 °C 1014.1 hPa Calm   8 km/h 76 % 0 mm
12:26 30.3 °C 25.4 °C 1014.1 hPa SW 1.6 km/h 6.4 km/h 75 % 0 mm
12:31 30.2 °C 25 °C 1014.1 hPa Calm   8 km/h 74 % 0 mm
12:36 30.3 °C 25.4 °C 1014.1 hPa West 1.6 km/h 8 km/h 75 % 0 mm
12:41 30.4 °C 24.8 °C 1014.1 hPa Calm   8 km/h 72 % 0 mm
12:46 30.6 °C 25 °C 1014.1 hPa NW 3.2 km/h 4.8 km/h 72 % 0 mm
12:51 30.6 °C 24.7 °C 1014.1 hPa NW 3.2 km/h 6.4 km/h 71 % 0 mm
12:56 30.7 °C 24.6 °C 1013.8 hPa Calm   8 km/h 70 % 0 mm
12:57 30.7 °C 24.6 °C 1013.8 hPa Calm   8 km/h 70 % 0 mm
13:02 31.3 °C 25.4 °C 1013.8 hPa ENE 3.2 km/h 8 km/h 71 % 0 mm
13:07 31.5 °C 24.9 °C 1013.8 hPa North 4.8 km/h 8 km/h 68 % 0 mm
13:12 31.3 °C 24.9 °C 1013.4 hPa NNW 3.2 km/h 8 km/h 69 % 0 mm
13:17 31.3 °C 24.7 °C 1013.4 hPa Calm   8 km/h 68 % 0 mm
13:22 31.4 °C 24.8 °C 1013.4 hPa NNW 3.2 km/h 8 km/h 68 % 0 mm
13:23 31.5 °C 25.4 °C 1013.4 hPa Calm   8 km/h 70 % 0 mm
13:28 31.8 °C 24.9 °C 1013.4 hPa ENE 1.6 km/h 8 km/h 67 % 0 mm
13:33 32.1 °C 25.2 °C 1013.4 hPa NNW 4.8 km/h 8 km/h 67 % 0 mm
13:38 32.1 °C 24.7 °C 1013.4 hPa ESE 3.2 km/h 8 km/h 65 % 0 mm
13:43 32.1 °C 24.2 °C 1013.4 hPa Calm   8 km/h 63 % 0 mm
13:44 32.2 °C 25.3 °C 1013.4 hPa NNE 1.6 km/h 8 km/h 67 % 0 mm
13:49 32.2 °C 24.5 °C 1013.4 hPa NE 3.2 km/h 8 km/h 64 % 0 mm
13:54 31.9 °C 24.5 °C 1013.1 hPa East 3.2 km/h 9.7 km/h 65 % 0 mm
13:59 32 °C 24.6 °C 1013.1 hPa ENE 3.2 km/h 9.7 km/h 65 % 0 mm
14:04 32.2 °C 24.5 °C 1013.1 hPa NE 3.2 km/h 9.7 km/h 64 % 0 mm
14:09 32.2 °C 24 °C 1013.1 hPa Calm   9.7 km/h 62 % 0 mm
14:14 32.5 °C 25.1 °C 1013.1 hPa East 1.6 km/h 9.7 km/h 65 % 0 mm
14:19 32.7 °C 24.7 °C 1013.1 hPa ENE 3.2 km/h 9.7 km/h 63 % 0 mm
14:24 32.8 °C 24.3 °C 1012.8 hPa WNW 6.4 km/h 8 km/h 61 % 0 mm
14:29 32.9 °C 24.1 °C 1013.1 hPa WNW 3.2 km/h 8 km/h 60 % 0 mm
14:34 33.1 °C 24.6 °C 1012.8 hPa Calm   8 km/h 61 % 0 mm
14:39 33.1 °C 24 °C 1012.8 hPa SE 4.8 km/h 8 km/h 59 % 0 mm
14:44 32.9 °C 24.6 °C 1012.8 hPa WNW 1.6 km/h 8 km/h 62 % 0 mm
14:49 33.1 °C 25.6 °C 1012.8 hPa ESE 4.8 km/h 8 km/h 65 % 0 mm
14:54 33 °C 24.2 °C 1012.8 hPa North 1.6 km/h 9.7 km/h 60 % 0 mm
15:00 33.1 °C 24.8 °C 1012.8 hPa East 3.2 km/h 11.3 km/h 62 % 0 mm
15:05 33.1 °C 24.6 °C 1012.8 hPa ESE 4.8 km/h 11.3 km/h 61 % 0 mm
15:09 33 °C 24.2 °C 1012.4 hPa ENE 1.6 km/h 11.3 km/h 60 % 0 mm
15:14 33.2 °C 24.7 °C 1012.4 hPa NNW 11.3 km/h 11.3 km/h 61 % 0 mm
15:19 32.9 °C 24.4 °C 1012.4 hPa East 1.6 km/h 12.9 km/h 61 % 0 mm
15:24 33.1 °C 24.6 °C 1012.1 hPa NW 6.4 km/h 12.9 km/h 61 % 0 mm
15:29 33.2 °C 25.2 °C 1012.1 hPa Calm   12.9 km/h 63 % 0 mm
15:35 33.4 °C 24.8 °C 1012.1 hPa East 1.6 km/h 11.3 km/h 61 % 0 mm
15:40 33.3 °C 24.5 °C 1012.1 hPa NW 3.2 km/h 9.7 km/h 60 % 0 mm
15:45 33.3 °C 24.5 °C 1012.1 hPa SE 8 km/h 8 km/h 60 % 0 mm
15:50 33.1 °C 25.1 °C 1012.1 hPa ESE 6.4 km/h 14.5 km/h 63 % 0 mm
15:55 33 °C 24.7 °C 1012.1 hPa SW 1.6 km/h 14.5 km/h 62 % 0 mm
16:00 33.1 °C 24 °C 1012.1 hPa Calm   12.9 km/h 59 % 0 mm
16:05 33.1 °C 24 °C 1012.1 hPa SSE 6.4 km/h 9.7 km/h 59 % 0 mm
16:10 33.2 °C 24.1 °C 1012.1 hPa ESE 1.6 km/h 9.7 km/h 59 % 0 mm
16:15 33.3 °C 24.5 °C 1011.7 hPa Calm   9.7 km/h 60 % 0 mm
16:20 33.3 °C 24.5 °C 1011.7 hPa North 4.8 km/h 8 km/h 60 % 0 mm
16:25 33.4 °C 24 °C 1011.7 hPa ENE 1.6 km/h 9.7 km/h 58 % 0 mm
16:30 33.3 °C 24.2 °C 1011.4 hPa East 3.2 km/h 9.7 km/h 59 % 0 mm
16:35 33.4 °C 24 °C 1011.4 hPa East 1.6 km/h 9.7 km/h 58 % 0 mm
16:40 33.4 °C 24 °C 1011.4 hPa Calm   8 km/h 58 % 0 mm
16:45 33.3 °C 24.2 °C 1011.1 hPa Calm   8 km/h 59 % 0 mm
16:50 33.6 °C 23.9 °C 1011.1 hPa NW 3.2 km/h 9.7 km/h 57 % 0 mm
16:55 33.4 °C 24 °C 1011.1 hPa NNW 3.2 km/h 9.7 km/h 58 % 0 mm
17:00 33.4 °C 24.3 °C 1011.1 hPa East 1.6 km/h 9.7 km/h 59 % 0 mm
17:05 33.6 °C 23.9 °C 1011.1 hPa WNW 1.6 km/h 9.7 km/h 57 % 0 mm
17:10 33.8 °C 23.8 °C 1011.1 hPa Calm   6.4 km/h 56 % 0 mm
17:15 33.9 °C 23.9 °C 1011.1 hPa ESE 3.2 km/h 8 km/h 56 % 0 mm
17:20 33.6 °C 23.9 °C 1011.1 hPa NE 8 km/h 11.3 km/h 57 % 0 mm
17:25 33.6 °C 24.5 °C 1011.1 hPa West 3.2 km/h 11.3 km/h 59 % 0 mm
17:30 33.6 °C 23.9 °C 1010.7 hPa SE 3.2 km/h 11.3 km/h 57 % 0 mm
17:35 33.7 °C 24 °C 1010.7 hPa WSW 1.6 km/h 11.3 km/h 57 % 0 mm
17:40 33.7 °C 24 °C 1010.7 hPa NW 4.8 km/h 11.3 km/h 57 % 0 mm
17:45 33.7 °C 23.7 °C 1010.7 hPa WNW 3.2 km/h 11.3 km/h 56 % 0 mm
17:47 33.8 °C 24.1 °C 1010.7 hPa NNW 1.6 km/h 11.3 km/h 57 % 0 mm
17:52 33.9 °C 23.6 °C 1010.4 hPa NE 1.6 km/h 11.3 km/h 55 % 0 mm
17:57 33.8 °C 23.5 °C 1010.4 hPa East 3.2 km/h 11.3 km/h 55 % 0 mm
18:02 33.8 °C 24.1 °C 1010.4 hPa North 3.2 km/h 9.7 km/h 57 % 0 mm
18:07 34 °C 24.3 °C 1010.4 hPa ENE 3.2 km/h 9.7 km/h 57 % 0 mm
18:12 33.9 °C 23.9 °C 1010 hPa WNW 1.6 km/h 8 km/h 56 % 0 mm
18:17 33.8 °C 24.1 °C 1010.4 hPa NNW 4.8 km/h 8 km/h 57 % 0 mm
18:22 33.9 °C 24.2 °C 1010 hPa North 1.6 km/h 8 km/h 57 % 0 mm
18:26 33.9 °C 24.2 °C 1010 hPa WNW 1.6 km/h 6.4 km/h 57 % 0 mm
18:31 34.2 °C 24.5 °C 1010 hPa Calm   6.4 km/h 57 % 0 mm
18:37 33.9 °C 23.9 °C 1010 hPa WNW 1.6 km/h 8 km/h 56 % 0 mm
18:42 33.6 °C 23.3 °C 1010 hPa Calm   8 km/h 55 % 0 mm
18:47 33.8 °C 23.8 °C 1010.4 hPa NNW 3.2 km/h 8 km/h 56 % 0 mm
18:52 33.6 °C 23.9 °C 1010.4 hPa Calm   6.4 km/h 57 % 0 mm
18:57 33.4 °C 24 °C 1010.4 hPa NNW 1.6 km/h 6.4 km/h 58 % 0 mm
19:02 33.2 °C 23.8 °C 1010.4 hPa ENE 3.2 km/h 6.4 km/h 58 % 0 mm
19:07 33 °C 23.9 °C 1010.4 hPa ENE 3.2 km/h 6.4 km/h 59 % 0 mm
19:12 32.9 °C 24.1 °C 1010.4 hPa NNW 1.6 km/h 8 km/h 60 % 0 mm
19:17 32.7 °C 23.9 °C 1010.4 hPa ENE 3.2 km/h 9.7 km/h 60 % 0 mm
19:22 32.6 °C 24.1 °C 1010.7 hPa Calm   9.7 km/h 61 % 0 mm
19:27 32.3 °C 24.1 °C 1010.7 hPa ENE 3.2 km/h 9.7 km/h 62 % 0 mm
19:32 32.1 °C 24.4 °C 1010.7 hPa NW 3.2 km/h 9.7 km/h 64 % 0 mm
19:37 31.8 °C 24.1 °C 1010.7 hPa Calm   9.7 km/h 64 % 0 mm
19:42 31.6 °C 24.2 °C 1010.7 hPa NNW 1.6 km/h 8 km/h 65 % 0 mm
19:47 31.4 °C 24 °C 1010.7 hPa NE 1.6 km/h 6.4 km/h 65 % 0 mm
19:52 31.3 °C 24.2 °C 1010.7 hPa Calm   6.4 km/h 66 % 0 mm
19:57 31.2 °C 24.3 °C 1010.7 hPa NW 1.6 km/h 6.4 km/h 67 % 0 mm
20:02 31 °C 24.1 °C 1010.7 hPa ENE 1.6 km/h 8 km/h 67 % 0 mm
20:07 30.9 °C 24.1 °C 1010.7 hPa Calm   8 km/h 67 % 0 mm
20:12 30.8 °C 24.2 °C 1010.7 hPa Calm   8 km/h 68 % 0 mm
20:17 30.7 °C 24.1 °C 1010.7 hPa Calm   6.4 km/h 68 % 0 mm
20:22 30.6 °C 24.3 °C 1010.7 hPa NNW 1.6 km/h 6.4 km/h 69 % 0 mm
20:27 30.5 °C 24.2 °C 1010.7 hPa Calm   4.8 km/h 69 % 0 mm
20:32 30.4 °C 24.3 °C 1010.7 hPa East 3.2 km/h 4.8 km/h 70 % 0 mm
20:37 30.3 °C 24.2 °C 1010.7 hPa East 1.6 km/h 4.8 km/h 70 % 0 mm
20:42 30.3 °C 24.2 °C 1010.7 hPa SE 1.6 km/h 4.8 km/h 70 % 0 mm
20:47 30.2 °C 24.1 °C 1010.7 hPa East 4.8 km/h 6.4 km/h 70 % 0 mm
20:52 30.2 °C 24.1 °C 1010.7 hPa SE 1.6 km/h 6.4 km/h 70 % 0 mm
20:58 30.1 °C 24 °C 1010.4 hPa SE 4.8 km/h 6.4 km/h 70 % 0 mm
21:03 30.1 °C 24 °C 1010.4 hPa SE 1.6 km/h 8 km/h 70 % 0 mm
21:08 29.9 °C 24.1 °C 1010.7 hPa Calm   8 km/h 71 % 0 mm
21:13 29.8 °C 24 °C 1010.7 hPa Calm   8 km/h 71 % 0 mm
21:18 29.8 °C 24 °C 1010.7 hPa Calm   8 km/h 71 % 0 mm
21:23 29.7 °C 23.9 °C 1010.7 hPa Calm   4.8 km/h 71 % 0 mm
21:28 29.7 °C 24.1 °C 1011.1 hPa Calm   1.6 km/h 72 % 0 mm
21:33 29.7 °C 24.3 °C 1011.1 hPa SE 3.2 km/h 3.2 km/h 73 % 0 mm
21:38 29.7 °C 24.6 °C 1011.1 hPa SSE 3.2 km/h 6.4 km/h 74 % 0 mm
21:43 29.6 °C 24.7 °C 1011.1 hPa SSE 4.8 km/h 11.3 km/h 75 % 0 mm
21:48 29.5 °C 24.8 °C 1011.1 hPa SSE 3.2 km/h 11.3 km/h 76 % 0 mm
21:53 29.4 °C 24.7 °C 1011.1 hPa SSE 1.6 km/h 11.3 km/h 76 % 0 mm
21:58 29.3 °C 24.8 °C 1011.4 hPa SSE 4.8 km/h 8 km/h 77 % 0 mm
22:03 29.1 °C 24.9 °C 1011.4 hPa SSW 6.4 km/h 8 km/h 78 % 0 mm
22:08 28.9 °C 24.9 °C 1011.4 hPa South 3.2 km/h 11.3 km/h 79 % 0 mm
22:13 28.8 °C 24.8 °C 1011.7 hPa South 1.6 km/h 11.3 km/h 79 % 0 mm
22:18 28.7 °C 24.9 °C 1011.7 hPa Calm   11.3 km/h 80 % 0 mm
22:23 28.6 °C 24.8 °C 1011.7 hPa SSE 1.6 km/h 11.3 km/h 80 % 0 mm
22:28 28.4 °C 24.8 °C 1011.7 hPa Calm   9.7 km/h 81 % 0 mm
22:33 28.3 °C 24.7 °C 1012.1 hPa SSW 3.2 km/h 9.7 km/h 81 % 0 mm
22:38 28.1 °C 24.7 °C 1012.1 hPa Calm   8 km/h 82 % 0 mm
22:43 27.9 °C 24.5 °C 1012.1 hPa SW 1.6 km/h 3.2 km/h 82 % 0 mm
22:48 27.8 °C 24.6 °C 1012.1 hPa SSW 3.2 km/h 4.8 km/h 83 % 0 mm
22:53 27.7 °C 24.5 °C 1012.4 hPa SSE 1.6 km/h 6.4 km/h 83 % 0 mm
22:58 27.6 °C 24.4 °C 1012.4 hPa SW 4.8 km/h 6.4 km/h 83 % 0 mm
23:03 27.6 °C 24.4 °C 1012.4 hPa SSE 3.2 km/h 6.4 km/h 83 % 0 mm
23:08 27.6 °C 24.6 °C 1012.8 hPa SSE 3.2 km/h 8 km/h 84 % 0 mm
23:13 27.6 °C 24.6 °C 1012.8 hPa SE 1.6 km/h 8 km/h 84 % 0 mm
23:18 27.6 °C 24.6 °C 1012.8 hPa SSE 3.2 km/h 8 km/h 84 % 0 mm
23:23 27.5 °C 24.6 °C 1012.8 hPa South 1.6 km/h 4.8 km/h 84 % 0 mm
23:26 27.4 °C 24.5 °C 1012.8 hPa South 3.2 km/h 4.8 km/h 84 % 0 mm
23:31 27.3 °C 24.4 °C 1012.8 hPa Calm   4.8 km/h 84 % 0 mm
23:36 27.2 °C 24.3 °C 1012.8 hPa Calm   4.8 km/h 84 % 0 mm
23:41 27.2 °C 24.5 °C 1012.8 hPa SSW 4.8 km/h 4.8 km/h 85 % 0 mm
23:46 27.1 °C 24.4 °C 1012.8 hPa South 1.6 km/h 6.4 km/h 85 % 0 mm
23:51 27.1 °C 24.4 °C 1013.1 hPa SSW 1.6 km/h 6.4 km/h 85 % 0 mm
23:56 27.1 °C 24.4 °C 1013.1 hPa Calm   6.4 km/h 85 % 0 mm
Spring, Texas: Villages of Bridgestone
Compliments of Weather Underground - 2.75 mb

Script developed by  Jim McMurry - jmcmurry@mwt.net Adapted for the template by  Wim van der Kuil - Leuven-Template.eu

You find our weather info also at:

UK Metoffice

WeatherCloud

Weather Underground

Mid-South Weather Network

AWEKAS

Citizen Weather Observer Program (CWOP)

HAMweather, WeatherForYou, PWS Weather

Equipment we use:

Weather-station
Davis Vantage Vue

Weather-program
Meteohub

Weather-server
Debian 7.9 x86 (Guest)

Provider
DreamHost

Davis Vantage Vue

Meteohub

Debian 7.9 x86 (Guest)

DreamHost